Time;durP1;ratioP1;P1;durP2;ratioP2;P2;SDS_P1;SDS_P2;PMS_P1;PMS_P2;Temp;Humidity;BMP_temperature;BMP_pressure;BME280_temperature;BME280_humidity;BME280_pressure;Samples;Min_cycle;Max_cycle;Signal;HPM_P1;HPM_P2
2023/07/12 00:01:11;;;;;;;7.57;3.90;;;;;;;24.41;78.60;100596.59;5045802;28;20037;-68
2023/07/12 00:03:37;;;;;;;8.43;3.85;;;;;;;24.40;78.32;100594.16;5048211;28;20094;-69
2023/07/12 00:06:04;;;;;;;8.57;3.85;;;;;;;24.40;78.27;100594.97;5058142;28;20033;-69
2023/07/12 00:08:31;;;;;;;8.35;3.72;;;;;;;24.39;77.62;100580.03;5043214;28;20041;-68
2023/07/12 00:10:58;;;;;;;6.93;3.45;;;;;;;24.40;76.96;100578.19;5051240;28;20033;-68
2023/07/12 00:13:25;;;;;;;3.72;2.85;;;;;;;24.40;76.38;100571.00;5047606;28;20032;-69
2023/07/12 00:15:52;;;;;;;6.25;3.25;;;;;;;24.49;75.65;100571.47;5048561;28;20506;-69
2023/07/12 00:18:26;;;;;;;4.72;2.80;;;;;;;24.55;74.75;100559.88;5046845;28;20036;-69
2023/07/12 00:20:52;;;;;;;5.72;2.97;;;;;;;24.54;74.98;100562.78;5050638;28;20047;-68
2023/07/12 00:23:19;;;;;;;4.82;3.40;;;;;;;24.50;75.24;100553.63;5048929;28;20078;-69
2023/07/12 00:25:46;;;;;;;6.15;3.17;;;;;;;24.43;75.62;100557.22;5049765;28;20024;-68
2023/07/12 00:28:26;;;;;;;4.85;3.10;;;;;;;24.37;75.71;100562.69;5055341;28;20052;-69
2023/07/12 00:30:54;;;;;;;9.13;3.03;;;;;;;24.29;75.19;100565.69;5050730;28;20043;-69
2023/07/12 00:33:20;;;;;;;4.60;3.38;;;;;;;24.27;75.04;100565.09;5042597;28;20346;-68
2023/07/12 00:35:46;;;;;;;5.70;3.13;;;;;;;24.32;74.49;100567.88;5051470;28;20032;-69
2023/07/12 00:38:25;;;;;;;7.43;3.03;;;;;;;24.34;73.93;100558.63;5056812;28;20036;-69
2023/07/12 00:41:10;;;;;;;3.28;2.92;;;;;;;24.40;73.95;100548.91;5054806;28;20029;-69
2023/07/12 00:43:48;;;;;;;3.85;2.83;;;;;;;24.44;73.63;100560.69;5042501;28;20045;-69
2023/07/12 00:46:22;;;;;;;6.57;3.10;;;;;;;24.43;73.74;100572.41;5049810;28;20091;-69
2023/07/12 00:48:48;;;;;;;5.10;3.45;;;;;;;24.40;74.64;100578.19;5045034;28;20255;-69
2023/07/12 00:51:25;;;;;;;7.25;3.20;;;;;;;24.34;76.16;100589.75;5052838;28;20513;-69
2023/07/12 00:53:51;;;;;;;5.82;3.50;;;;;;;24.26;76.46;100582.13;5050200;28;20546;-69
2023/07/12 00:56:16;;;;;;;6.57;3.60;;;;;;;24.20;76.49;100580.34;5054878;28;20033;-69
2023/07/12 00:58:52;;;;;;;4.80;3.28;;;;;;;24.17;76.83;100570.97;5048952;28;20491;-69
2023/07/12 01:01:18;;;;;;;6.82;3.53;;;;;;;24.14;77.43;100569.56;5050807;28;20037;-69
2023/07/12 01:03:45;;;;;;;4.18;3.38;;;;;;;24.16;77.67;100572.81;5051784;28;20033;-69
2023/07/12 01:06:14;;;;;;;4.93;3.70;;;;;;;24.17;78.71;100579.75;5056568;28;20074;-69
2023/07/12 01:08:43;;;;;;;6.45;3.90;;;;;;;24.07;79.63;100576.09;5049734;28;20040;-69
2023/07/12 01:11:15;;;;;;;7.55;3.85;;;;;;;24.00;80.09;100575.38;5053690;28;20041;-69
2023/07/12 01:13:42;;;;;;;6.88;3.97;;;;;;;24.02;79.68;100582.09;5054633;28;20388;-68
2023/07/12 01:16:09;;;;;;;7.40;3.20;;;;;;;24.03;79.11;100585.56;5050697;28;20039;-68
2023/07/12 01:18:35;;;;;;;5.82;3.92;;;;;;;24.09;78.49;100593.44;5045155;28;20041;-68
2023/07/12 01:21:11;;;;;;;7.90;3.80;;;;;;;24.16;77.81;100594.13;5052380;28;20028;-68
2023/07/12 01:23:38;;;;;;;7.75;3.72;;;;;;;24.22;77.38;100597.72;5050427;28;20033;-67
2023/07/12 01:26:22;;;;;;;7.53;3.90;;;;;;;24.21;78.13;100611.25;5060835;28;20033;-69
2023/07/12 01:28:51;;;;;;;7.03;3.95;;;;;;;24.21;77.79;100611.25;5058677;28;20043;-69
2023/07/12 01:31:17;;;;;;;5.28;3.47;;;;;;;24.21;78.43;100612.06;5054452;28;20178;-69
2023/07/12 01:33:43;;;;;;;5.10;3.75;;;;;;;24.17;79.07;100611.72;5052762;28;20026;-68
2023/07/12 01:36:08;;;;;;;7.93;3.72;;;;;;;24.14;79.41;100606.84;5055183;28;20143;-68
2023/07/12 01:38:33;;;;;;;8.73;4.10;;;;;;;24.15;79.96;100613.78;5055081;28;20445;-68
2023/07/12 01:40:59;;;;;;;5.45;3.80;;;;;;;24.11;80.04;100612.63;5051522;28;20063;-68
2023/07/12 01:43:24;;;;;;;6.30;3.92;;;;;;;24.10;79.89;100611.00;5042465;28;20033;-68
2023/07/12 01:45:50;;;;;;;7.53;4.72;;;;;;;24.10;79.64;100615.53;5054055;28;20455;-68
2023/07/12 01:48:15;;;;;;;5.57;3.47;;;;;;;24.10;79.40;100608.34;5055247;28;20029;-68
2023/07/12 01:50:41;;;;;;;7.68;3.83;;;;;;;24.10;78.33;100611.00;5053325;28;20040;-68
2023/07/12 01:53:08;;;;;;;5.57;3.78;;;;;;;24.11;77.85;100617.94;5054089;28;20039;-69
2023/07/12 01:55:34;;;;;;;8.15;3.45;;;;;;;24.15;77.07;100603.13;5054593;28;20455;-69
2023/07/12 01:57:59;;;;;;;7.20;3.88;;;;;;;24.21;76.64;100574.78;5053917;28;20025;-69
2023/07/12 02:00:24;;;;;;;7.35;3.35;;;;;;;24.34;75.66;100573.78;5053908;28;20052;-68
2023/07/12 02:02:50;;;;;;;5.60;2.83;;;;;;;24.43;74.22;100577.72;5053414;28;20040;-69
2023/07/12 02:05:15;;;;;;;5.90;3.47;;;;;;;24.49;74.11;100571.47;5057809;28;20035;-69
2023/07/12 02:07:41;;;;;;;7.43;2.88;;;;;;;24.56;75.24;100611.31;5054154;28;20043;-69
2023/07/12 02:10:10;;;;;;;4.90;3.22;;;;;;;24.49;77.02;100614.09;5053811;28;20106;-69
2023/07/12 02:12:36;;;;;;;6.68;4.00;;;;;;;24.31;78.52;100609.66;5053069;28;20040;-69
2023/07/12 02:15:01;;;;;;;5.70;3.85;;;;;;;24.16;77.89;100614.59;5053644;28;20404;-68
2023/07/12 02:17:27;;;;;;;8.90;3.95;;;;;;;24.18;77.86;100623.16;5053426;28;20048;-68
2023/07/12 02:19:52;;;;;;;7.80;4.13;;;;;;;24.07;79.36;100643.44;5055710;28;20078;-68
2023/07/12 02:22:18;;;;;;;9.07;4.38;;;;;;;23.90;82.57;100687.69;5058201;28;20040;-68
2023/07/12 02:24:43;;;;;;;7.88;4.10;;;;;;;23.64;85.81;100702.16;5053127;28;20471;-68
2023/07/12 02:27:08;;;;;;;11.25;5.15;;;;;;;23.38;88.22;100721.06;5053232;28;20488;-68
2023/07/12 02:29:34;;;;;;;6.03;3.80;;;;;;;23.31;87.34;100713.16;5052410;28;20524;-68
2023/07/12 02:31:59;;;;;;;6.90;3.35;;;;;;;23.28;86.43;100739.38;5053705;28;20028;-68
2023/07/12 02:34:25;;;;;;;7.47;2.83;;;;;;;23.08;87.06;100732.44;5056775;28;20029;-69
2023/07/12 02:36:50;;;;;;;4.78;3.15;;;;;;;22.92;87.84;100708.28;5048874;28;20460;-68
2023/07/12 02:39:16;;;;;;;5.25;3.10;;;;;;;22.79;89.04;100720.66;5052469;28;20051;-68
2023/07/12 02:41:41;;;;;;;3.70;2.80;;;;;;;22.81;88.49;100750.47;5050280;28;20037;-68
2023/07/12 02:44:06;;;;;;;6.63;2.47;;;;;;;22.88;88.32;100786.78;5046788;28;20041;-68
2023/07/12 02:46:32;;;;;;;5.65;2.20;;;;;;;22.82;88.13;100839.75;5049228;28;21502;-67
2023/07/12 02:48:57;;;;;;;9.35;2.13;;;;;;;22.73;90.04;100935.81;5055692;28;20503;-69
2023/07/12 02:51:23;;;;;;;9.38;2.95;;;;;;;22.48;92.25;101031.34;5048931;28;20040;-69
2023/07/12 02:53:48;;;;;;;5.57;1.65;;;;;;;21.69;96.79;101092.41;5051185;28;20481;-70
2023/07/12 02:56:14;;;;;;;8.18;2.60;;;;;;;21.06;100.00;101049.41;5053001;28;20492;-70
2023/07/12 02:58:39;;;;;;;13.30;3.55;;;;;;;20.65;100.00;100992.03;5053613;28;20032;-68
2023/07/12 03:01:05;;;;;;;10.57;2.85;;;;;;;20.42;100.00;100965.03;5054883;28;20041;-68
2023/07/12 03:03:31;;;;;;;5.07;2.20;;;;;;;20.10;100.00;100914.41;5050237;28;20481;-68
2023/07/12 03:06:02;;;;;;;7.18;2.53;;;;;;;19.85;100.00;100900.81;5048276;28;20430;-70
2023/07/12 03:08:27;;;;;;;7.75;1.80;;;;;;;19.78;100.00;100878.03;5052374;28;20048;-67
2023/07/12 03:10:57;;;;;;;4.95;2.72;;;;;;;19.80;100.00;100895.31;5052577;28;20029;-69
2023/07/12 03:13:22;;;;;;;7.40;2.78;;;;;;;19.88;100.00;100924.22;5053930;28;20495;-69
2023/07/12 03:15:48;;;;;;;10.02;3.40;;;;;;;20.02;100.00;100927.78;5054569;28;20032;-69
2023/07/12 03:18:13;;;;;;;12.90;2.75;;;;;;;19.99;100.00;100877.09;5056126;28;20028;-70
2023/07/12 03:20:39;;;;;;;10.05;3.25;;;;;;;19.85;100.00;100773.09;5050165;28;20396;-69
2023/07/12 03:23:04;;;;;;;5.70;2.35;;;;;;;19.72;100.00;100710.44;5054620;28;20408;-70
2023/07/12 03:25:30;;;;;;;8.60;2.00;;;;;;;19.60;100.00;100746.38;5054543;28;20666;-70
2023/07/12 03:27:55;;;;;;;6.55;3.00;;;;;;;19.68;100.00;100777.09;5050850;28;20040;-70
2023/07/12 03:30:21;;;;;;;6.75;2.78;;;;;;;19.84;100.00;100755.63;5048794;28;20396;-70
2023/07/12 03:32:46;;;;;;;9.30;3.30;;;;;;;19.92;100.00;100722.88;5047279;28;20033;-69
2023/07/12 03:35:12;;;;;;;5.13;2.72;;;;;;;19.98;100.00;100725.53;5057490;28;20029;-69
2023/07/12 03:37:37;;;;;;;10.32;3.03;;;;;;;20.07;100.00;100720.88;5053663;28;20032;-69
2023/07/12 03:40:03;;;;;;;11.35;3.47;;;;;;;20.16;100.00;100717.06;5050139;28;20102;-70
2023/07/12 03:42:29;;;;;;;8.48;2.58;;;;;;;20.17;100.00;100695.69;5051868;28;20039;-70
2023/07/12 03:44:54;;;;;;;11.00;3.35;;;;;;;20.19;100.00;100709.53;5055480;28;20044;-70
2023/07/12 03:47:20;;;;;;;7.38;2.92;;;;;;;20.20;100.00;100720.94;5053927;28;20091;-70
2023/07/12 03:49:45;;;;;;;8.98;3.40;;;;;;;20.19;100.00;100722.75;5053591;28;20078;-71
2023/07/12 03:52:11;;;;;;;6.00;2.95;;;;;;;20.27;100.00;100724.41;5050534;28;20060;-70
2023/07/12 03:54:36;;;;;;;6.53;4.28;;;;;;;20.25;100.00;100755.53;5051257;28;20120;-70
2023/07/12 03:57:02;;;;;;;7.38;3.97;;;;;;;20.25;100.00;100768.75;5048045;28;20104;-68
2023/07/12 03:59:27;;;;;;;11.00;4.25;;;;;;;20.27;100.00;100813.53;5049226;28;20075;-70
2023/07/12 04:01:53;;;;;;;14.65;4.05;;;;;;;20.25;100.00;100856.06;5060838;28;20111;-69
2023/07/12 04:04:18;;;;;;;8.18;3.95;;;;;;;20.29;100.00;100848.56;5052533;28;20360;-69
2023/07/12 04:06:44;;;;;;;10.98;5.90;;;;;;;20.30;100.00;100781.41;5054767;28;20131;-69
2023/07/12 04:09:09;;;;;;;9.50;4.10;;;;;;;20.21;100.00;100709.31;5053904;28;20064;-68
2023/07/12 04:11:37;;;;;;;9.48;4.28;;;;;;;20.15;100.00;100688.97;5043360;28;20032;-68
2023/07/12 04:14:02;;;;;;;10.65;4.47;;;;;;;20.16;100.00;100717.88;5054873;28;20476;-68
2023/07/12 04:16:30;;;;;;;12.82;3.30;;;;;;;20.24;100.00;100731.91;5048835;28;20025;-68
2023/07/12 04:18:56;;;;;;;7.75;3.28;;;;;;;20.20;100.00;100734.16;5051127;28;20040;-69
2023/07/12 04:21:21;;;;;;;10.40;3.13;;;;;;;20.14;100.00;100727.81;5051064;28;20127;-69
2023/07/12 04:23:48;;;;;;;7.53;3.13;;;;;;;20.13;100.00;100709.50;5047364;28;20037;-69
2023/07/12 04:26:17;;;;;;;4.85;2.33;;;;;;;19.82;100.00;100707.41;5049770;28;20040;-68
2023/07/12 04:28:43;;;;;;;8.07;2.00;;;;;;;19.63;100.00;100689.66;5048677;28;20033;-68
2023/07/12 04:31:12;;;;;;;4.88;1.40;;;;;;;19.61;100.00;100683.75;5049972;28;20535;-68
2023/07/12 04:33:38;;;;;;;5.05;1.23;;;;;;;19.53;100.00;100642.44;5048410;28;20031;-69
2023/07/12 04:36:05;;;;;;;6.43;1.65;;;;;;;19.50;100.00;100629.59;5045171;28;20028;-69
2023/07/12 04:38:32;;;;;;;4.72;1.60;;;;;;;19.49;100.00;100635.91;5046624;28;20044;-70
2023/07/12 04:40:57;;;;;;;6.85;1.75;;;;;;;19.45;100.00;100661.91;5047758;28;20037;-68
2023/07/12 04:43:23;;;;;;;3.28;2.05;;;;;;;19.48;100.00;100677.38;5045170;28;20388;-67
2023/07/12 04:45:49;;;;;;;3.97;1.80;;;;;;;19.43;100.00;100685.06;5050577;28;20040;-67
2023/07/12 04:48:15;;;;;;;3.88;1.63;;;;;;;19.44;100.00;100697.25;5053189;28;20430;-67
2023/07/12 04:50:41;;;;;;;5.20;1.50;;;;;;;19.45;100.00;100666.38;5049996;28;20060;-67
2023/07/12 04:53:06;;;;;;;9.00;1.60;;;;;;;19.31;100.00;100617.97;5045691;28;20571;-68
2023/07/12 04:55:32;;;;;;;6.50;1.38;;;;;;;19.20;100.00;100585.00;5050015;28;20032;-69
2023/07/12 04:57:58;;;;;;;4.55;1.17;;;;;;;19.16;100.00;100572.41;5050529;28;20051;-68
2023/07/12 05:00:24;;;;;;;4.63;0.88;;;;;;;19.18;100.00;100576.47;5044798;28;20037;-68
2023/07/12 05:02:51;;;;;;;3.55;0.75;;;;;;;19.11;100.00;100577.47;5046408;28;20071;-69
2023/07/12 05:05:16;;;;;;;2.63;0.60;;;;;;;19.02;100.00;100558.31;5050358;28;20041;-67
2023/07/12 05:07:42;;;;;;;4.68;0.45;;;;;;;18.98;100.00;100558.91;5052361;28;20071;-68
2023/07/12 05:10:09;;;;;;;6.53;0.95;;;;;;;18.95;100.00;100557.47;5053537;28;20125;-75
2023/07/12 05:12:36;;;;;;;6.57;0.80;;;;;;;18.90;100.00;100560.72;5048741;28;20083;-72
2023/07/12 05:15:04;;;;;;;4.60;0.68;;;;;;;18.89;100.00;100561.75;5050678;28;20044;-72
2023/07/12 05:17:29;;;;;;;3.60;0.50;;;;;;;18.89;100.00;100553.81;5046850;28;20141;-69
2023/07/12 05:19:55;;;;;;;4.93;0.60;;;;;;;18.89;100.00;100569.66;5053666;28;20556;-70
2023/07/12 05:22:21;;;;;;;3.78;0.55;;;;;;;18.94;100.00;100582.25;5051871;28;20036;-69
2023/07/12 05:24:46;;;;;;;2.38;0.80;;;;;;;19.00;100.00;100589.38;5049293;28;20448;-69
2023/07/12 05:27:12;;;;;;;4.55;0.63;;;;;;;19.01;100.00;100584.94;5050448;28;20033;-70
2023/07/12 05:29:37;;;;;;;5.65;0.73;;;;;;;19.09;100.00;100551.25;5048195;28;20064;-69
2023/07/12 05:32:03;;;;;;;2.53;0.73;;;;;;;19.16;100.00;100553.91;5050994;28;20123;-70
2023/07/12 05:34:28;;;;;;;4.57;0.65;;;;;;;19.14;100.00;100563.88;5044880;28;20037;-70
2023/07/12 05:36:54;;;;;;;4.03;0.57;;;;;;;19.07;100.00;100565.66;5050358;28;20025;-69
2023/07/12 05:39:19;;;;;;;3.20;0.60;;;;;;;19.06;100.00;100556.91;5044480;28;20048;-70
2023/07/12 05:41:45;;;;;;;3.70;0.68;;;;;;;19.07;100.00;100548.00;5047060;28;20047;-70
2023/07/12 05:44:10;;;;;;;2.70;0.75;;;;;;;19.14;100.00;100532.97;5043972;28;20053;-71
2023/07/12 05:46:37;;;;;;;3.45;0.40;;;;;;;19.17;100.00;100548.44;5049362;28;20469;-71
2023/07/12 05:49:03;;;;;;;4.60;0.75;;;;;;;19.25;100.00;100573.03;5044269;28;20112;-71
2023/07/12 05:51:29;;;;;;;5.50;0.63;;;;;;;19.33;100.00;100589.53;5052546;28;20120;-71
2023/07/12 05:53:54;;;;;;;2.95;0.40;;;;;;;19.35;100.00;100582.22;5044044;28;20025;-70
2023/07/12 05:56:19;;;;;;;2.67;0.50;;;;;;;19.50;100.00;100590.78;5043439;28;20040;-71
2023/07/12 05:58:45;;;;;;;3.70;0.60;;;;;;;19.70;100.00;100612.00;5039946;28;20035;-70
2023/07/12 06:01:10;;;;;;;3.35;0.80;;;;;;;19.85;100.00;100625.84;5046762;28;20488;-70
2023/07/12 06:03:36;;;;;;;3.75;0.77;;;;;;;19.86;100.00;100631.94;5044991;28;20044;-70
2023/07/12 06:06:05;;;;;;;6.82;0.60;;;;;;;19.79;100.00;100631.16;5040495;28;20033;-71
2023/07/12 06:08:30;;;;;;;2.50;0.50;;;;;;;19.83;100.00;100616.50;5049027;28;20037;-69
2023/07/12 06:10:56;;;;;;;3.25;0.80;;;;;;;19.95;100.00;100608.78;5053499;28;20032;-68
2023/07/12 06:13:22;;;;;;;4.32;0.65;;;;;;;19.97;100.00;100606.75;5053538;28;20029;-68
2023/07/12 06:15:47;;;;;;;2.65;0.95;;;;;;;19.96;100.00;100616.50;5054040;28;20154;-68
2023/07/12 06:18:12;;;;;;;5.57;0.55;;;;;;;20.02;100.00;100621.00;5047076;28;20215;-69
2023/07/12 06:20:38;;;;;;;2.97;0.88;;;;;;;19.88;100.00;100620.16;5048820;28;20067;-69
2023/07/12 06:23:04;;;;;;;4.95;0.77;;;;;;;19.88;100.00;100619.34;5047463;28;20052;-68
2023/07/12 06:25:29;;;;;;;3.45;1.02;;;;;;;19.96;100.00;100616.50;5054804;28;20045;-68
2023/07/12 06:27:55;;;;;;;4.05;0.70;;;;;;;20.03;100.00;100611.22;5053137;28;20041;-68
2023/07/12 06:30:21;;;;;;;2.85;1.00;;;;;;;20.13;100.00;100612.47;5056559;28;20509;-68
2023/07/12 06:32:47;;;;;;;4.78;1.45;;;;;;;20.28;100.00;100619.38;5045540;28;20030;-68
2023/07/12 06:35:12;;;;;;;2.97;0.57;;;;;;;20.42;100.00;100615.72;5050878;28;20080;-68
2023/07/12 06:37:38;;;;;;;4.43;0.95;;;;;;;20.52;100.00;100618.78;5052632;28;20347;-67
2023/07/12 06:40:05;;;;;;;3.08;0.82;;;;;;;20.58;100.00;100617.94;5053571;28;20489;-67
2023/07/12 06:42:31;;;;;;;3.33;1.17;;;;;;;20.69;100.00;100622.63;5049513;28;20040;-67
2023/07/12 06:44:56;;;;;;;2.20;0.50;;;;;;;20.76;100.00;100639.31;5053221;28;20445;-67
2023/07/12 06:47:23;;;;;;;3.40;0.63;;;;;;;21.13;100.00;100642.25;5049544;28;20033;-67
2023/07/12 06:49:51;;;;;;;3.88;0.95;;;;;;;21.36;100.00;100639.94;5053282;28;20048;-67
2023/07/12 06:52:16;;;;;;;4.22;1.05;;;;;;;21.51;100.00;100648.44;5051356;28;20040;-67
2023/07/12 06:54:43;;;;;;;4.07;0.52;;;;;;;21.65;100.00;100643.88;5046786;28;20041;-67
2023/07/12 06:57:08;;;;;;;4.07;0.88;;;;;;;21.73;100.00;100642.81;5051112;28;20024;-68
2023/07/12 06:59:34;;;;;;;2.90;0.65;;;;;;;21.88;100.00;100653.13;5049017;28;20480;-68
2023/07/12 07:02:03;;;;;;;3.17;0.80;;;;;;;21.98;100.00;100664.06;5053152;28;20033;-68
2023/07/12 07:04:28;;;;;;;3.03;0.50;;;;;;;22.12;100.00;100671.78;5049404;28;20554;-67
2023/07/12 07:06:54;;;;;;;4.30;0.50;;;;;;;22.32;100.00;100681.41;5054988;28;20033;-67
2023/07/12 07:09:20;;;;;;;4.25;0.50;;;;;;;22.45;100.00;100686.63;5042148;28;20025;-67
2023/07/12 07:11:47;;;;;;;4.55;0.80;;;;;;;22.48;100.00;100686.19;5038808;28;20491;-68
2023/07/12 07:14:14;;;;;;;5.63;0.40;;;;;;;22.50;100.00;100684.94;5052694;28;20040;-68
2023/07/12 07:16:40;;;;;;;1.15;0.30;;;;;;;22.58;100.00;100683.84;5044157;28;20062;-68
2023/07/12 07:19:05;;;;;;;5.50;0.80;;;;;;;22.55;100.00;100675.50;5051210;28;20032;-67
2023/07/12 07:21:31;;;;;;;2.05;0.60;;;;;;;22.59;100.00;100679.34;5052029;28;20040;-68
2023/07/12 07:23:56;;;;;;;1.98;0.63;;;;;;;22.63;100.00;100678.72;5048734;28;20113;-68
2023/07/12 07:26:22;;;;;;;1.98;0.50;;;;;;;22.69;100.00;100691.09;5044195;28;20025;-67
2023/07/12 07:28:47;;;;;;;3.83;0.30;;;;;;;22.61;100.00;100686.06;5053184;28;20040;-67
2023/07/12 07:31:13;;;;;;;6.72;0.50;;;;;;;22.51;100.00;100693.72;5054090;28;20120;-68
2023/07/12 07:33:39;;;;;;;2.95;0.40;;;;;;;22.63;100.00;100694.63;5049020;28;20518;-68
2023/07/12 07:36:10;;;;;;;1.90;0.40;;;;;;;22.83;100.00;100707.75;5049932;28;20035;-68
2023/07/12 07:38:36;;;;;;;3.50;0.40;;;;;;;22.86;100.00;100709.16;5047443;28;20040;-68
2023/07/12 07:41:08;;;;;;;1.40;0.47;;;;;;;22.83;100.00;100697.94;5049597;28;20418;-68
2023/07/12 07:43:36;;;;;;;2.22;0.30;;;;;;;22.66;100.00;100672.97;5041528;28;20687;-68
2023/07/12 07:46:02;;;;;;;4.22;0.35;;;;;;;22.35;100.00;100659.75;5047172;28;20051;-68
2023/07/12 07:48:28;;;;;;;3.42;0.52;;;;;;;22.21;100.00;100706.00;5056705;28;20399;-68
2023/07/12 07:50:53;;;;;;;2.97;0.52;;;;;;;22.46;100.00;100768.69;5059847;28;20033;-68
2023/07/12 07:53:19;;;;;;;5.18;0.50;;;;;;;22.50;100.00;100769.91;5057592;28;20041;-68
2023/07/12 07:55:45;;;;;;;2.63;0.45;;;;;;;22.44;100.00;100765.44;5051457;28;20033;-68
2023/07/12 07:58:12;;;;;;;2.85;0.90;;;;;;;22.47;100.00;100770.31;5052536;28;20055;-69
2023/07/12 08:00:38;;;;;;;2.17;0.55;;;;;;;22.44;100.00;100748.69;5046273;28;20063;-68
2023/07/12 08:03:05;;;;;;;2.92;0.55;;;;;;;22.49;100.00;100743.56;5056345;28;20031;-81
2023/07/12 08:05:31;;;;;;;2.15;0.60;;;;;;;22.54;100.00;100743.72;5052698;28;20088;-67
2023/07/12 08:07:57;;;;;;;4.40;0.50;;;;;;;22.60;100.00;100760.66;5045828;28;20135;-67
2023/07/12 08:10:22;;;;;;;2.83;0.73;;;;;;;22.59;100.00;100783.72;5049298;28;20037;-68
2023/07/12 08:12:49;;;;;;;1.83;0.60;;;;;;;22.67;100.00;100780.81;5048389;28;20114;-68
2023/07/12 08:15:19;;;;;;;3.53;0.77;;;;;;;22.78;100.00;100788.09;5051903;28;20424;-68
2023/07/12 08:17:44;;;;;;;1.67;0.40;;;;;;;22.73;100.00;100789.72;5041519;28;20044;-68
2023/07/12 08:20:11;;;;;;;2.33;0.50;;;;;;;22.72;100.00;100769.50;5054340;28;20396;-68
2023/07/12 08:22:36;;;;;;;2.38;0.40;;;;;;;22.54;100.00;100738.41;5045982;28;20083;-68
2023/07/12 08:25:02;;;;;;;1.60;0.30;;;;;;;22.45;100.00;100735.22;5050188;28;20064;-68
2023/07/12 08:27:30;;;;;;;6.22;1.17;;;;;;;22.39;100.00;100761.81;5051523;28;20124;-68
2023/07/12 08:29:58;;;;;;;3.65;0.60;;;;;;;22.66;100.00;100773.88;5050932;28;20036;-68
2023/07/12 08:32:27;;;;;;;1.60;0.43;;;;;;;22.93;100.00;100773.66;5048228;28;20044;-68
2023/07/12 08:34:54;;;;;;;1.70;0.30;;;;;;;22.94;100.00;100769.97;5040014;28;20457;-68
2023/07/12 08:37:19;;;;;;;1.45;0.40;;;;;;;22.94;100.00;100777.94;5044592;28;20452;-68
2023/07/12 08:39:45;;;;;;;7.82;0.73;;;;;;;23.22;100.00;100778.28;5051500;28;20039;-68
2023/07/12 08:42:15;;;;;;;2.22;0.40;;;;;;;23.39;100.00;100779.34;5047662;28;20057;-67
2023/07/12 08:44:41;;;;;;;1.63;0.50;;;;;;;23.72;100.00;100778.16;5041546;28;20045;-67
2023/07/12 08:47:18;;;;;;;1.38;0.30;;;;;;;23.90;100.00;100764.84;5044704;28;20042;-68
2023/07/12 08:49:44;;;;;;;5.63;0.68;;;;;;;24.03;100.00;100764.69;5049330;28;20028;-68
2023/07/12 08:52:18;;;;;;;5.35;0.40;;;;;;;24.15;100.00;100756.72;5044260;28;20396;-68
2023/07/12 08:54:44;;;;;;;3.13;0.30;;;;;;;24.29;99.56;100762.69;5046900;28;20037;-68
2023/07/12 08:57:17;;;;;;;3.55;0.40;;;;;;;24.41;97.70;100767.03;5039838;28;20095;-68
2023/07/12 08:59:48;;;;;;;1.77;0.50;;;;;;;24.44;96.00;100781.72;5031277;28;20045;-68
2023/07/12 09:02:23;;;;;;;1.88;0.40;;;;;;;24.47;95.94;100770.63;5053941;28;20033;-68
2023/07/12 09:04:50;;;;;;;2.35;0.47;;;;;;;24.51;95.39;100773.66;5034625;28;20036;-67
2023/07/12 09:07:27;;;;;;;3.00;0.30;;;;;;;24.61;97.12;100777.34;5036352;28;20440;-67
2023/07/12 09:09:55;;;;;;;4.32;0.40;;;;;;;24.67;97.66;100797.75;5039244;28;20028;-68
2023/07/12 09:12:32;;;;;;;2.38;0.30;;;;;;;24.74;98.18;100803.78;5050270;28;20124;-68
2023/07/12 09:15:00;;;;;;;4.50;0.40;;;;;;;24.84;98.06;100819.22;5041938;28;20116;-67
2023/07/12 09:17:30;;;;;;;1.75;0.40;;;;;;;24.86;97.92;100843.78;5041337;28;20144;-67
2023/07/12 09:19:58;;;;;;;2.08;0.50;;;;;;;24.84;98.11;100856.53;5040961;28;20036;-67
2023/07/12 09:22:23;;;;;;;5.65;0.30;;;;;;;24.76;97.87;100870.97;5049100;28;20060;-66
2023/07/12 09:24:54;;;;;;;2.30;0.38;;;;;;;24.65;98.05;100885.06;5043212;28;20153;-66
2023/07/12 09:27:27;;;;;;;2.30;0.40;;;;;;;24.50;98.41;100906.00;5050505;28;20119;-66
2023/07/12 09:30:04;;;;;;;2.03;0.38;;;;;;;24.34;98.64;100915.41;5043952;28;20194;-68
2023/07/12 09:32:34;;;;;;;3.60;0.32;;;;;;;24.20;99.51;100931.75;5052686;28;20484;-67
2023/07/12 09:35:01;;;;;;;2.30;0.50;;;;;;;24.09;100.00;100966.06;5043514;28;20392;-67
2023/07/12 09:37:28;;;;;;;1.35;0.40;;;;;;;23.94;100.00;100994.06;5043328;28;20033;-67
2023/07/12 09:39:58;;;;;;;4.13;0.50;;;;;;;23.81;100.00;101016.28;5041586;28;20049;-68
2023/07/12 09:42:26;;;;;;;4.50;0.50;;;;;;;23.71;100.00;101039.91;5050008;28;20025;-68
2023/07/12 09:44:52;;;;;;;3.10;0.82;;;;;;;23.61;100.00;101084.81;5042780;28;20045;-67
2023/07/12 09:47:29;;;;;;;4.60;0.65;;;;;;;23.50;100.00;101073.78;5042059;28;20038;-68
2023/07/12 09:50:07;;;;;;;4.00;0.82;;;;;;;23.48;100.00;101045.78;5051827;28;20032;-68
2023/07/12 09:52:47;;;;;;;3.17;1.25;;;;;;;23.39;100.00;101066.50;5046200;28;20103;-67
2023/07/12 09:55:36;;;;;;;4.70;1.00;;;;;;;23.36;100.00;101043.00;5053056;28;20127;-67
2023/07/12 09:58:24;;;;;;;3.75;1.50;;;;;;;23.31;98.13;101042.81;5039534;28;20031;-68
2023/07/12 10:01:13;;;;;;;2.78;1.15;;;;;;;23.31;98.23;101021.56;5047151;28;20028;-68
2023/07/12 10:03:48;;;;;;;4.70;1.10;;;;;;;23.28;97.99;101010.53;5044304;28;20063;-68
2023/07/12 10:06:31;;;;;;;2.92;0.80;;;;;;;23.22;96.01;100984.81;5046824;28;20362;-69
2023/07/12 10:08:57;;;;;;;3.67;0.82;;;;;;;23.18;96.50;100992.38;5044001;28;20112;-69
2023/07/12 10:11:34;;;;;;;8.43;0.90;;;;;;;23.14;95.29;100977.94;5043767;28;20068;-70
2023/07/12 10:14:08;;;;;;;2.75;0.68;;;;;;;23.17;91.83;100942.91;5045626;28;20025;-69
2023/07/12 10:16:42;;;;;;;2.35;0.60;;;;;;;23.20;90.90;100933.69;5053063;28;20032;-68
2023/07/12 10:19:25;;;;;;;3.30;0.75;;;;;;;23.16;91.42;100912.06;5052521;28;20057;-69
2023/07/12 10:21:54;;;;;;;1.45;0.40;;;;;;;23.21;90.86;100892.78;5045851;28;20039;-69
2023/07/12 10:24:31;;;;;;;1.63;0.35;;;;;;;23.31;86.76;100871.84;5051870;28;20072;-71
2023/07/12 10:26:58;;;;;;;1.73;0.45;;;;;;;23.61;83.50;100842.78;5053331;28;20112;-69
2023/07/12 10:29:45;;;;;;;5.70;0.75;;;;;;;23.76;78.48;100844.00;5045634;28;20029;-69
2023/07/12 10:32:24;;;;;;;0.90;0.30;;;;;;;23.96;79.14;100832.34;5042354;28;20025;-70
2023/07/12 10:35:04;;;;;;;8.00;0.50;;;;;;;24.15;74.33;100794.78;5040115;28;20065;-71
2023/07/12 10:37:40;;;;;;;1.13;0.30;;;;;;;24.41;75.71;100782.19;5052008;28;20025;-68
2023/07/12 10:40:15;;;;;;;2.15;0.43;;;;;;;24.71;73.57;100758.13;5041332;28;20116;-69
2023/07/12 10:42:56;;;;;;;1.55;0.20;;;;;;;24.95;70.82;100729.66;5042269;28;20116;-68
2023/07/12 10:45:26;;;;;;;0.93;0.30;;;;;;;25.18;71.52;100692.31;5043248;28;20510;-67
2023/07/12 10:47:54;;;;;;;2.70;0.30;;;;;;;25.48;72.28;100672.66;5050753;28;20083;-67
2023/07/12 10:50:35;;;;;;;0.60;0.20;;;;;;;25.75;71.50;100639.84;5055426;28;20021;-67
2023/07/12 10:53:21;;;;;;;0.95;0.20;;;;;;;25.92;67.88;100628.38;5055257;28;20021;-68
2023/07/12 10:56:03;;;;;;;;;;;;;;;26.13;69.21;100631.13;5041941;28;20032;-67
2023/07/12 10:58:59;;;;;;;1.58;0.43;;;;;;;26.29;68.36;100623.38;5060841;28;19962;-67
2023/07/12 11:01:47;;;;;;;1.40;0.10;;;;;;;26.43;69.45;100636.19;5042832;28;20067;-67
2023/07/12 11:04:44;;;;;;;1.55;0.30;;;;;;;26.72;67.06;100652.06;5032360;28;20038;-68
2023/07/12 11:07:10;;;;;;;1.50;0.25;;;;;;;26.82;69.08;100659.41;5042745;28;20032;-68
2023/07/12 11:09:45;;;;;;;2.92;0.35;;;;;;;27.02;69.39;100654.34;5042991;28;20041;-68
2023/07/12 11:12:31;;;;;;;1.17;0.25;;;;;;;27.10;69.07;100662.75;5039453;28;20037;-68
2023/07/12 11:15:22;;;;;;;2.90;0.40;;;;;;;27.21;64.34;100666.34;5050284;28;20079;-67
2023/07/12 11:18:00;;;;;;;4.18;0.30;;;;;;;27.38;67.59;100666.28;5045723;28;20568;-68
2023/07/12 11:20:35;;;;;;;1.58;0.35;;;;;;;27.44;69.25;100658.06;5043045;28;20079;-68
2023/07/12 11:23:29;;;;;;;4.57;0.20;;;;;;;27.58;67.98;100649.63;5018586;28;20038;-68
2023/07/12 11:26:26;;;;;;;3.15;0.40;;;;;;;27.64;68.20;100654.00;5034741;28;20118;-69